Time;durP1;ratioP1;P1;durP2;ratioP2;P2;SDS_P1;SDS_P2;PMS_P1;PMS_P2;Temp;Humidity;BMP_temperature;BMP_pressure;BME280_temperature;BME280_humidity;BME280_pressure;Samples;Min_cycle;Max_cycle;Signal;HPM_P1;HPM_P2
2023/06/13 00:02:16;;;;;;;10.80;4.93;;;;;;;20.89;41.18;99729.94;5035723;28;20112;-74
2023/06/13 00:04:43;;;;;;;9.88;5.20;;;;;;;20.70;41.98;99733.19;5041148;28;20033;-77
2023/06/13 00:07:09;;;;;;;8.23;4.60;;;;;;;20.81;41.08;99728.84;5041943;28;20045;-74
2023/06/13 00:09:35;;;;;;;12.90;4.55;;;;;;;20.76;41.56;99732.66;5039429;28;20411;-75
2023/06/13 00:12:00;;;;;;;7.03;4.68;;;;;;;20.73;41.59;99732.50;5040855;28;20071;-74
2023/06/13 00:14:26;;;;;;;12.90;5.38;;;;;;;20.66;41.73;99738.56;5045837;28;20033;-75
2023/06/13 00:16:52;;;;;;;9.98;4.57;;;;;;;20.62;41.62;99743.97;5042031;28;20028;-74
2023/06/13 00:19:18;;;;;;;13.85;6.85;;;;;;;20.52;41.72;99730.50;5038247;28;20073;-75
2023/06/13 00:21:45;;;;;;;8.20;4.13;;;;;;;20.56;41.54;99734.22;5047577;28;20114;-75
2023/06/13 00:24:10;;;;;;;8.55;4.43;;;;;;;20.55;41.55;99732.59;5040158;28;20029;-76
2023/06/13 00:26:36;;;;;;;13.75;5.60;;;;;;;20.54;41.55;99730.97;5041514;28;20029;-75
2023/06/13 00:29:01;;;;;;;10.40;4.55;;;;;;;20.59;41.33;99739.09;5043120;28;20027;-75
2023/06/13 00:31:29;;;;;;;6.93;4.07;;;;;;;20.60;41.37;99731.59;5040054;28;20032;-75
2023/06/13 00:33:58;;;;;;;12.07;4.82;;;;;;;20.43;41.46;99716.69;5044860;28;20790;-75
2023/06/13 00:36:25;;;;;;;7.95;4.53;;;;;;;20.74;40.27;99723.06;5041504;28;20040;-75
2023/06/13 00:38:51;;;;;;;8.90;5.20;;;;;;;20.27;42.04;99721.97;5041210;28;20029;-75
2023/06/13 00:41:16;;;;;;;13.93;4.85;;;;;;;19.98;42.57;99724.31;5043159;28;20041;-74
2023/06/13 00:43:42;;;;;;;9.10;4.95;;;;;;;19.92;43.02;99726.47;5040682;28;20029;-77
2023/06/13 00:46:08;;;;;;;11.23;4.85;;;;;;;20.03;42.11;99721.41;5047226;28;20040;-75
2023/06/13 00:48:36;;;;;;;9.63;4.90;;;;;;;20.08;41.98;99714.06;5039003;28;20029;-76
2023/06/13 00:51:02;;;;;;;10.85;5.22;;;;;;;20.03;42.20;99713.09;5044666;28;20096;-74
2023/06/13 00:53:31;;;;;;;9.40;4.50;;;;;;;20.10;42.21;99720.91;5043019;28;20059;-75
2023/06/13 00:55:58;;;;;;;13.48;4.57;;;;;;;20.21;41.22;99715.00;5035918;28;20477;-74
2023/06/13 00:58:24;;;;;;;11.43;5.60;;;;;;;20.27;41.44;99710.91;5043844;28;20029;-74
2023/06/13 01:00:52;;;;;;;12.68;4.82;;;;;;;20.13;42.34;99708.34;5040887;28;20599;-74
2023/06/13 01:03:19;;;;;;;11.40;4.90;;;;;;;20.00;43.18;99702.66;5044620;28;20028;-75
2023/06/13 02:06:16;;;;;;;13.38;7.05;;;;;;;19.21;45.90;99685.09;5027952;28;20057;-75
2023/06/13 02:08:41;;;;;;;15.68;6.50;;;;;;;19.45;45.42;99682.94;5038185;28;20043;-75
2023/06/13 02:11:06;;;;;;;24.13;7.63;;;;;;;19.40;45.19;99681.19;5038144;28;20483;-74
2023/06/13 02:13:32;;;;;;;29.57;6.67;;;;;;;19.38;45.59;99683.47;5040426;28;20037;-74
2023/06/13 02:15:57;;;;;;;10.97;6.00;;;;;;;19.15;46.35;99680.03;5046943;28;20269;-74
2023/06/13 02:18:22;;;;;;;11.70;6.77;;;;;;;19.44;45.30;99676.63;5041753;28;20084;-74
2023/06/13 02:20:47;;;;;;;15.53;6.73;;;;;;;19.22;45.97;99675.66;5037800;28;20737;-74
2023/06/13 02:23:13;;;;;;;11.50;6.43;;;;;;;19.29;45.70;99672.41;5041596;28;20075;-74
2023/06/13 02:25:38;;;;;;;10.73;6.67;;;;;;;19.02;46.65;99677.91;5050101;28;20090;-74
2023/06/13 02:28:03;;;;;;;12.52;8.27;;;;;;;19.18;46.08;99674.66;5044371;28;20831;-74
2023/06/13 02:30:29;;;;;;;30.52;8.82;;;;;;;19.11;46.14;99675.16;5035061;28;20433;-74
2023/06/13 02:32:54;;;;;;;16.17;8.87;;;;;;;18.96;46.98;99672.84;5042479;28;20033;-75
2023/06/13 02:35:23;;;;;;;16.90;6.63;;;;;;;18.77;46.94;99674.00;5032943;28;20277;-75
2023/06/13 02:37:54;;;;;;;11.40;7.25;;;;;;;18.78;47.12;99672.84;5011710;28;20129;-74
2023/06/13 02:40:21;;;;;;;14.65;6.93;;;;;;;18.78;47.00;99679.19;5043608;28;20564;-74
2023/06/13 02:42:48;;;;;;;11.90;6.50;;;;;;;18.75;46.92;99674.28;5040092;28;20651;-74
2023/06/13 02:45:14;;;;;;;20.08;6.95;;;;;;;18.81;46.45;99676.91;5037863;28;20024;-75
2023/06/13 02:47:39;;;;;;;12.57;6.65;;;;;;;18.77;46.74;99676.75;5044287;28;20032;-74
2023/06/13 02:50:05;;;;;;;11.50;6.33;;;;;;;18.71;46.74;99675.28;5033014;28;20037;-75
2023/06/13 02:52:31;;;;;;;10.13;5.95;;;;;;;18.67;46.90;99675.91;5043787;28;20337;-75
2023/06/13 02:54:56;;;;;;;10.07;6.63;;;;;;;18.93;46.09;99679.84;5047808;28;20029;-75
2023/06/13 02:57:21;;;;;;;13.95;7.15;;;;;;;18.77;46.58;99674.78;5034477;28;20061;-74
2023/06/13 02:59:47;;;;;;;11.73;6.30;;;;;;;18.76;46.44;99672.34;5040869;28;20029;-74
2023/06/13 03:02:13;;;;;;;14.23;7.05;;;;;;;18.66;46.45;99671.53;5048387;28;20021;-74
2023/06/13 03:04:38;;;;;;;13.25;8.05;;;;;;;18.85;46.02;99669.63;5031512;28;20553;-74
2023/06/13 03:07:05;;;;;;;11.60;8.30;;;;;;;18.81;46.34;99677.75;5042295;28;20036;-74
2023/06/13 03:09:31;;;;;;;13.82;7.55;;;;;;;18.69;46.62;99675.63;5036275;28;21373;-74
2023/06/13 03:11:56;;;;;;;12.30;6.47;;;;;;;18.69;46.33;99672.84;5032000;28;20072;-75
2023/06/13 03:14:22;;;;;;;9.73;5.90;;;;;;;18.62;46.40;99683.53;5038141;28;20029;-75
2023/06/13 03:16:48;;;;;;;10.85;5.93;;;;;;;18.74;46.25;99675.44;5033779;28;20029;-74
2023/06/13 03:19:13;;;;;;;10.68;6.63;;;;;;;18.67;46.16;99677.88;5036085;28;20040;-74
2023/06/13 03:21:41;;;;;;;13.30;7.40;;;;;;;18.82;45.68;99678.53;5031079;28;20033;-75
2023/06/13 03:24:06;;;;;;;13.13;8.18;;;;;;;18.72;46.35;99677.72;5030919;28;20949;-74
2023/06/13 03:26:37;;;;;;;15.83;7.33;;;;;;;18.62;45.99;99678.84;5033673;28;20026;-75
2023/06/13 03:29:03;;;;;;;19.42;7.18;;;;;;;18.58;46.70;99682.56;5036392;28;20258;-75
2023/06/13 03:31:28;;;;;;;10.18;6.07;;;;;;;18.54;46.35;99687.91;5047421;28;20485;-74
2023/06/13 03:33:53;;;;;;;12.63;6.97;;;;;;;18.53;46.34;99689.84;5034682;28;20040;-74
2023/06/13 03:36:18;;;;;;;15.03;6.97;;;;;;;18.53;46.49;99689.06;5035861;28;20274;-74
2023/06/13 03:38:43;;;;;;;13.40;7.43;;;;;;;18.57;46.40;99678.19;5037204;28;20402;-75
2023/06/13 03:41:09;;;;;;;16.27;7.60;;;;;;;18.60;46.61;99683.03;5040555;28;20262;-74
2023/06/13 03:43:34;;;;;;;11.77;8.23;;;;;;;18.57;46.65;99684.50;5037386;28;20022;-74
2023/06/13 03:46:00;;;;;;;14.73;6.95;;;;;;;18.51;46.66;99680.28;5041597;28;20489;-76
2023/06/13 03:48:25;;;;;;;11.82;6.80;;;;;;;18.50;47.08;99678.63;5037325;28;20037;-75
2023/06/13 03:50:50;;;;;;;17.57;7.10;;;;;;;18.47;47.39;99682.84;5046434;28;20029;-74
2023/06/13 03:53:16;;;;;;;13.20;6.93;;;;;;;18.48;47.13;99690.00;5045914;28;20258;-73
2023/06/13 03:55:43;;;;;;;14.50;8.20;;;;;;;18.49;47.10;99691.63;5041447;28;20051;-75
2023/06/13 03:58:08;;;;;;;9.38;6.85;;;;;;;18.63;46.71;99697.00;5040658;28;20029;-74
2023/06/13 04:00:33;;;;;;;10.33;6.17;;;;;;;18.58;47.04;99696.34;5043599;28;20033;-75
2023/06/13 04:03:00;;;;;;;12.60;7.70;;;;;;;18.56;47.24;99699.44;5045561;28;20251;-74
2023/06/13 04:05:26;;;;;;;9.50;5.68;;;;;;;18.51;47.07;99694.88;5029954;28;20045;-74
2023/06/13 04:07:53;;;;;;;19.05;6.18;;;;;;;18.53;47.18;99700.88;5032855;28;20032;-74
2023/06/13 04:10:18;;;;;;;13.77;6.47;;;;;;;18.53;47.26;99702.84;5030025;28;20475;-74
2023/06/13 04:12:44;;;;;;;11.57;6.73;;;;;;;18.59;46.96;99689.72;5037056;28;20026;-76
2023/06/13 04:15:09;;;;;;;12.20;6.97;;;;;;;18.63;47.62;99682.41;5036171;28;20290;-74
2023/06/13 04:17:36;;;;;;;11.07;6.28;;;;;;;18.65;47.26;99691.19;5039954;28;20333;-74
2023/06/13 04:20:04;;;;;;;13.85;6.75;;;;;;;18.61;47.77;99692.97;5032426;28;20083;-75
2023/06/13 04:22:31;;;;;;;10.85;6.45;;;;;;;18.68;47.59;99690.53;5045927;28;20072;-76
2023/06/13 04:24:56;;;;;;;18.25;6.25;;;;;;;18.69;47.95;99692.19;5037920;28;20052;-74
2023/06/13 04:27:28;;;;;;;10.38;6.32;;;;;;;18.65;48.02;99696.72;5038385;28;20029;-75
2023/06/13 04:29:54;;;;;;;11.55;5.72;;;;;;;18.72;47.89;99693.47;5037161;28;20060;-74
2023/06/13 04:32:23;;;;;;;14.00;7.05;;;;;;;18.78;47.94;99690.22;5034038;28;20113;-81
2023/06/13 04:34:52;;;;;;;10.65;6.22;;;;;;;18.83;48.08;99688.44;5046637;28;20022;-82
2023/06/13 04:37:30;;;;;;;10.45;7.38;;;;;;;18.87;47.91;99697.72;5037405;28;20022;-82
2023/06/13 04:39:56;;;;;;;13.13;6.97;;;;;;;18.94;47.89;99702.75;5031033;28;20049;-82
2023/06/13 04:42:27;;;;;;;9.85;6.13;;;;;;;18.92;47.92;99700.31;5036784;28;20123;-82
2023/06/13 04:44:56;;;;;;;11.05;6.68;;;;;;;18.90;48.54;99688.78;5036853;28;20029;-82
2023/06/13 04:47:23;;;;;;;16.17;7.65;;;;;;;18.86;48.67;99690.56;5043643;28;20033;-82
2023/06/13 04:49:51;;;;;;;13.32;6.68;;;;;;;18.87;48.66;99686.66;5045431;28;20029;-82
2023/06/13 04:52:18;;;;;;;14.57;6.88;;;;;;;18.91;48.52;99695.94;5042877;28;20064;-82
2023/06/13 04:54:44;;;;;;;11.43;6.57;;;;;;;18.92;48.66;99697.56;5037698;28;20029;-82
2023/06/13 04:57:10;;;;;;;16.70;7.57;;;;;;;18.94;48.71;99697.22;5046581;28;20108;-82
2023/06/13 04:59:35;;;;;;;12.48;7.05;;;;;;;19.01;48.84;99703.91;5042846;28;20048;-82
2023/06/13 05:02:00;;;;;;;11.33;6.70;;;;;;;19.04;48.81;99704.41;5043377;28;20120;-81
2023/06/13 05:04:26;;;;;;;13.40;6.33;;;;;;;19.08;48.72;99706.19;5045836;28;20282;-82
2023/06/13 05:06:51;;;;;;;15.43;7.27;;;;;;;19.07;48.76;99712.03;5041971;28;20652;-82
2023/06/13 05:09:17;;;;;;;10.65;6.38;;;;;;;19.10;48.73;99720.47;5038533;28;20270;-82
2023/06/13 05:11:43;;;;;;;12.38;7.15;;;;;;;19.18;48.80;99718.88;5043442;28;20032;-82
2023/06/13 05:14:08;;;;;;;15.95;7.70;;;;;;;19.30;48.64;99721.00;5044387;28;20378;-82
2023/06/13 05:16:34;;;;;;;13.73;7.63;;;;;;;19.38;48.55;99722.16;5046892;28;20032;-82
2023/06/13 05:19:00;;;;;;;12.85;7.75;;;;;;;19.41;48.39;99721.50;5043359;28;20033;-82
2023/06/13 05:21:27;;;;;;;9.23;5.93;;;;;;;19.42;48.24;99717.59;5050126;28;20528;-82
2023/06/13 05:23:53;;;;;;;11.63;8.23;;;;;;;19.54;48.02;99727.19;5043543;28;20025;-82
2023/06/13 05:26:20;;;;;;;10.15;5.90;;;;;;;19.48;48.49;99727.34;5042408;28;20036;-82
2023/06/13 05:28:46;;;;;;;17.08;6.88;;;;;;;19.55;48.40;99731.56;5038946;28;20109;-82
2023/06/13 05:31:12;;;;;;;16.00;7.57;;;;;;;19.67;48.57;99728.16;5041111;28;20036;-82
2023/06/13 05:33:37;;;;;;;11.45;6.35;;;;;;;19.73;48.26;99732.34;5046592;28;20041;-82
2023/06/13 05:36:03;;;;;;;17.20;7.00;;;;;;;19.68;47.72;99741.63;5049546;28;20056;-83
2023/06/13 05:38:29;;;;;;;12.57;6.72;;;;;;;19.74;48.27;99735.94;5044267;28;20109;-83
2023/06/13 05:40:54;;;;;;;18.23;7.70;;;;;;;19.77;47.81;99738.84;5037390;28;20030;-83
2023/06/13 05:43:20;;;;;;;17.33;6.97;;;;;;;19.89;48.44;99742.91;5039564;28;20087;-74
2023/06/13 05:45:48;;;;;;;17.15;6.72;;;;;;;19.93;47.50;99741.91;5045873;28;20060;-75
2023/06/13 05:48:14;;;;;;;11.43;6.75;;;;;;;19.99;47.60;99747.28;5014881;28;20537;-74
2023/06/13 05:50:39;;;;;;;17.05;7.40;;;;;;;19.97;47.98;99744.03;5049738;28;20020;-75
2023/06/13 05:53:04;;;;;;;12.43;7.00;;;;;;;19.94;47.91;99735.25;5042633;28;20029;-83
2023/06/13 05:55:29;;;;;;;16.08;7.05;;;;;;;20.09;47.58;99744.19;5044966;28;20297;-83
2023/06/13 05:57:55;;;;;;;12.50;7.90;;;;;;;20.14;47.47;99746.75;5044665;28;20029;-83
2023/06/13 06:00:20;;;;;;;13.97;6.57;;;;;;;20.20;47.66;99741.84;5036748;28;20033;-83
2023/06/13 06:02:47;;;;;;;23.55;8.48;;;;;;;20.26;47.44;99748.00;5041961;28;20277;-83
2023/06/13 06:05:13;;;;;;;14.05;6.88;;;;;;;20.18;46.86;99747.72;5050384;28;20049;-84
2023/06/13 06:07:40;;;;;;;12.43;7.57;;;;;;;20.30;46.78;99752.56;5051709;28;20021;-83
2023/06/13 06:10:05;;;;;;;10.75;7.25;;;;;;;20.41;47.00;99741.94;5034196;28;20029;-83
2023/06/13 06:12:31;;;;;;;12.02;7.18;;;;;;;20.53;47.27;99752.31;5035593;28;20038;-82
2023/06/13 06:14:57;;;;;;;20.02;7.65;;;;;;;20.53;47.23;99746.78;5042745;28;20025;-82
2023/06/13 06:17:22;;;;;;;18.80;8.82;;;;;;;20.60;47.58;99753.75;5050078;28;20033;-82
2023/06/13 06:19:48;;;;;;;12.38;6.88;;;;;;;20.76;47.27;99746.50;5037091;28;20025;-81
2023/06/13 06:22:13;;;;;;;15.70;6.50;;;;;;;20.85;47.35;99751.16;5049049;28;20025;-81
2023/06/13 06:24:39;;;;;;;13.52;7.38;;;;;;;20.85;46.86;99746.44;5045082;28;20030;-81
2023/06/13 06:27:05;;;;;;;16.90;8.73;;;;;;;20.94;47.25;99748.34;5046770;28;20121;-82
2023/06/13 06:29:31;;;;;;;12.10;7.57;;;;;;;20.92;46.88;99756.19;5037467;28;20398;-80
2023/06/13 06:31:56;;;;;;;13.05;6.82;;;;;;;21.03;47.21;99757.44;5045917;28;20033;-81
2023/06/13 06:34:21;;;;;;;13.50;7.80;;;;;;;21.07;46.58;99750.06;5044250;28;20025;-81
2023/06/13 06:36:46;;;;;;;23.17;7.73;;;;;;;21.11;46.80;99753.78;5047915;28;20090;-81
2023/06/13 06:39:13;;;;;;;15.07;7.87;;;;;;;21.15;46.04;99753.13;5043094;28;20277;-79
2023/06/13 06:41:38;;;;;;;18.33;6.63;;;;;;;21.20;45.83;99761.22;5034812;28;20656;-77
2023/06/13 06:44:03;;;;;;;20.30;7.43;;;;;;;21.21;45.02;99765.63;5041700;28;20068;-82
2023/06/13 06:46:29;;;;;;;13.10;6.77;;;;;;;21.32;44.76;99764.06;5049712;28;20251;-82
2023/06/13 06:48:54;;;;;;;19.13;7.03;;;;;;;21.34;45.62;99759.00;5031713;28;20084;-82
2023/06/13 06:51:19;;;;;;;11.93;7.18;;;;;;;21.38;45.07;99756.38;5047087;28;21281;-82
2023/06/13 06:53:44;;;;;;;12.83;7.43;;;;;;;21.46;44.25;99751.88;5045936;28;20033;-82
2023/06/13 06:56:10;;;;;;;11.00;7.07;;;;;;;21.47;44.58;99759.06;5046969;28;20763;-82
2023/06/13 06:58:36;;;;;;;13.00;7.53;;;;;;;21.40;44.88;99764.38;5041954;28;20308;-82
2023/06/13 07:01:01;;;;;;;13.10;7.68;;;;;;;21.52;44.19;99756.09;5040859;28;20686;-81
2023/06/13 07:03:26;;;;;;;15.35;7.30;;;;;;;21.56;43.84;99762.56;5043397;28;20037;-75
2023/06/13 07:05:52;;;;;;;15.27;6.27;;;;;;;21.58;44.07;99760.28;5038903;28;20055;-71
2023/06/13 07:08:17;;;;;;;12.53;6.73;;;;;;;21.68;44.07;99755.47;5031131;28;20060;-70
2023/06/13 07:10:42;;;;;;;11.37;7.00;;;;;;;21.68;43.74;99763.78;5032588;28;20250;-69
2023/06/13 07:13:08;;;;;;;12.63;7.10;;;;;;;21.74;43.64;99756.88;5033004;28;20029;-71
2023/06/13 07:15:33;;;;;;;10.40;6.25;;;;;;;21.60;43.15;99770.22;5032505;28;20044;-70
2023/06/13 07:17:58;;;;;;;11.27;6.30;;;;;;;21.67;42.80;99756.59;5032158;28;20512;-70
2023/06/13 07:20:24;;;;;;;13.60;6.93;;;;;;;21.78;43.13;99759.78;5032679;28;20028;-71
2023/06/13 07:22:49;;;;;;;15.40;7.00;;;;;;;21.91;42.81;99758.69;5033796;28;20043;-76
2023/06/13 07:25:14;;;;;;;10.80;6.43;;;;;;;21.96;42.25;99760.44;5033768;28;20051;-72
2023/06/13 07:27:40;;;;;;;11.85;6.60;;;;;;;22.04;42.07;99767.03;5033458;28;20066;-73
2023/06/13 07:30:06;;;;;;;11.90;6.67;;;;;;;22.09;41.95;99766.03;5032501;28;20738;-73
2023/06/13 07:32:31;;;;;;;11.30;6.32;;;;;;;22.08;42.17;99762.44;5033614;28;20033;-74
2023/06/13 07:34:56;;;;;;;17.80;6.63;;;;;;;22.09;42.11;99766.03;5038969;28;20382;-74
2023/06/13 07:37:22;;;;;;;12.93;6.37;;;;;;;22.11;42.01;99780.38;5033980;28;20045;-74
2023/06/13 07:39:47;;;;;;;15.68;7.15;;;;;;;22.02;41.99;99784.06;5032547;28;20767;-74
2023/06/13 07:42:12;;;;;;;15.43;6.73;;;;;;;22.11;41.35;99774.81;5033553;28;20671;-74
2023/06/13 07:44:37;;;;;;;8.73;5.27;;;;;;;22.19;41.64;99776.66;5032900;28;20270;-74
2023/06/13 07:47:03;;;;;;;16.47;6.37;;;;;;;22.26;41.53;99771.38;5032967;28;20041;-73
2023/06/13 07:49:29;;;;;;;10.35;6.70;;;;;;;22.25;41.60;99771.72;5032303;28;20133;-74
2023/06/13 07:51:55;;;;;;;11.85;7.05;;;;;;;22.30;41.51;99770.66;5032647;28;20049;-73
2023/06/13 07:54:21;;;;;;;14.50;6.47;;;;;;;22.33;41.53;99770.00;5032441;28;20029;-74
2023/06/13 07:56:47;;;;;;;14.98;6.32;;;;;;;22.38;40.95;99766.97;5032539;28;20041;-73
2023/06/13 07:59:13;;;;;;;13.52;6.50;;;;;;;22.49;40.41;99765.38;5032914;28;20094;-73
2023/06/13 08:01:38;;;;;;;13.00;6.10;;;;;;;22.37;41.13;99760.63;5032347;28;20746;-75
2023/06/13 08:04:03;;;;;;;14.57;6.90;;;;;;;22.38;41.29;99764.22;5034673;28;20027;-75
2023/06/13 08:06:29;;;;;;;10.23;6.30;;;;;;;22.41;40.77;99763.53;5036130;28;20617;-73
2023/06/13 08:08:54;;;;;;;8.00;5.50;;;;;;;22.58;40.74;99751.38;5035163;28;20254;-73
2023/06/13 08:11:19;;;;;;;13.90;6.60;;;;;;;22.59;40.96;99761.34;5036057;28;20392;-76
2023/06/13 08:13:44;;;;;;;9.98;5.75;;;;;;;22.59;40.98;99760.53;5036098;28;20338;-74
2023/06/13 08:16:10;;;;;;;11.40;5.82;;;;;;;22.67;40.78;99751.28;5036642;28;20067;-73
2023/06/13 08:18:36;;;;;;;11.47;6.60;;;;;;;22.77;40.44;99754.75;5036518;28;20118;-75
2023/06/13 08:21:02;;;;;;;9.93;5.90;;;;;;;22.89;40.41;99754.75;5036687;28;20258;-73
2023/06/13 08:23:27;;;;;;;16.67;6.50;;;;;;;22.92;40.60;99745.72;5036047;28;20028;-73
2023/06/13 08:25:53;;;;;;;9.23;5.83;;;;;;;22.98;40.87;99752.63;5036118;28;20496;-74
2023/06/13 08:28:18;;;;;;;11.80;6.65;;;;;;;23.05;40.27;99748.47;5035741;28;20044;-75
2023/06/13 08:30:45;;;;;;;9.32;5.78;;;;;;;23.17;40.34;99751.22;5035783;28;20041;-74
2023/06/13 08:33:11;;;;;;;11.30;6.75;;;;;;;23.25;40.38;99748.66;5036279;28;20037;-75
2023/06/13 08:35:37;;;;;;;16.80;6.20;;;;;;;23.27;39.78;99752.69;5035758;28;20067;-73
2023/06/13 08:38:02;;;;;;;16.77;7.32;;;;;;;23.26;40.55;99744.72;5035071;28;20115;-74
2023/06/13 08:40:27;;;;;;;12.68;6.65;;;;;;;23.30;40.17;99754.78;5036392;28;20113;-74
2023/06/13 08:42:53;;;;;;;11.98;6.72;;;;;;;23.39;39.52;99756.63;5035215;28;20068;-74
2023/06/13 08:45:19;;;;;;;18.35;6.20;;;;;;;23.42;39.76;99751.16;5035570;28;20069;-73
2023/06/13 08:47:49;;;;;;;16.33;6.78;;;;;;;23.51;39.66;99750.22;5036093;28;20497;-74
2023/06/13 08:50:18;;;;;;;16.80;7.32;;;;;;;23.33;39.41;99744.91;5036017;28;21303;-74
2023/06/13 08:52:46;;;;;;;10.43;6.82;;;;;;;23.53;39.73;99739.56;5035271;28;20037;-74
2023/06/13 08:55:13;;;;;;;12.35;6.88;;;;;;;23.59;39.65;99732.56;5035526;28;20066;-74
2023/06/13 08:57:40;;;;;;;10.68;7.00;;;;;;;23.71;38.95;99739.22;5035952;28;20478;-75
2023/06/13 09:00:11;;;;;;;10.20;6.57;;;;;;;23.76;37.95;99731.44;5035590;28;20063;-74
2023/06/13 09:02:40;;;;;;;11.77;6.53;;;;;;;23.87;38.08;99726.16;5036090;28;20444;-75
2023/06/13 09:05:06;;;;;;;20.80;7.05;;;;;;;23.99;38.25;99727.25;5035319;28;20049;-74
2023/06/13 09:07:32;;;;;;;10.43;6.57;;;;;;;24.08;38.34;99719.53;5035219;28;20034;-72
2023/06/13 09:09:58;;;;;;;12.57;6.60;;;;;;;24.22;36.81;99719.13;5034934;28;20030;-74
2023/06/13 09:12:25;;;;;;;12.63;7.10;;;;;;;24.27;37.08;99725.56;5034836;28;20588;-74
2023/06/13 09:14:52;;;;;;;9.20;6.60;;;;;;;24.33;36.93;99722.16;5034453;28;20029;-74
2023/06/13 09:17:17;;;;;;;10.82;7.13;;;;;;;24.32;37.00;99717.78;5035134;28;20025;-74
2023/06/13 09:19:43;;;;;;;12.52;6.30;;;;;;;24.43;37.40;99723.59;5034904;28;20049;-74
2023/06/13 09:22:08;;;;;;;13.07;7.13;;;;;;;24.54;36.94;99720.25;5035259;28;20037;-73
2023/06/13 09:24:35;;;;;;;9.57;6.57;;;;;;;24.67;36.31;99715.41;5035265;28;20435;-74
2023/06/13 09:27:03;;;;;;;12.70;7.38;;;;;;;24.70;36.13;99715.47;5036085;28;20379;-74
2023/06/13 09:29:33;;;;;;;13.90;6.90;;;;;;;24.72;36.64;99718.69;5034542;28;20029;-73
2023/06/13 09:31:59;;;;;;;13.02;8.18;;;;;;;24.72;37.58;99723.47;5034517;28;20163;-74
2023/06/13 09:34:26;;;;;;;11.35;6.75;;;;;;;24.68;36.86;99708.63;5034492;28;20397;-74
2023/06/13 09:36:51;;;;;;;11.32;7.43;;;;;;;24.67;37.40;99704.25;5035199;28;20147;-74
2023/06/13 09:39:17;;;;;;;9.88;7.03;;;;;;;24.84;37.04;99705.81;5035923;28;20044;-74
2023/06/13 09:41:42;;;;;;;11.02;6.90;;;;;;;25.06;36.85;99709.09;5035797;28;20087;-73
2023/06/13 09:44:08;;;;;;;13.37;7.23;;;;;;;25.06;36.61;99703.50;5033942;28;20069;-73
2023/06/13 09:46:35;;;;;;;14.85;7.65;;;;;;;24.88;36.01;99697.50;5034268;28;20037;-73
2023/06/13 09:49:01;;;;;;;9.70;6.75;;;;;;;25.05;36.19;99699.94;5033019;28;20478;-73
2023/06/13 09:51:29;;;;;;;11.65;7.00;;;;;;;25.09;35.78;99700.00;5034035;28;20066;-73
2023/06/13 09:53:55;;;;;;;11.80;7.28;;;;;;;25.21;35.46;99693.47;5034033;28;20375;-73
2023/06/13 09:56:22;;;;;;;9.88;6.85;;;;;;;25.12;36.07;99696.47;5033530;28;20036;-73
2023/06/13 09:58:47;;;;;;;11.35;6.53;;;;;;;25.16;36.34;99696.56;5033215;28;20065;-73
2023/06/13 10:01:15;;;;;;;12.02;8.00;;;;;;;25.41;36.23;99699.03;5033743;28;20064;-73
2023/06/13 10:03:41;;;;;;;13.52;5.85;;;;;;;25.49;35.18;99703.59;5033926;28;20041;-75
2023/06/13 10:06:06;;;;;;;16.17;6.70;;;;;;;25.42;34.38;99689.50;5033459;28;20072;-74
2023/06/13 10:08:33;;;;;;;12.07;7.25;;;;;;;25.59;35.39;99681.84;5033501;28;20064;-74
2023/06/13 10:11:06;;;;;;;12.98;6.18;;;;;;;25.68;34.56;99679.66;5034808;28;20084;-74
2023/06/13 10:13:39;;;;;;;10.38;6.43;;;;;;;25.76;34.52;99677.78;5033652;28;20032;-74
2023/06/13 10:16:06;;;;;;;10.70;6.45;;;;;;;26.00;33.15;99681.38;5034425;28;20409;-75
2023/06/13 10:18:36;;;;;;;11.10;6.13;;;;;;;25.85;33.82;99675.56;5034226;28;20421;-74
2023/06/13 10:21:04;;;;;;;14.27;6.88;;;;;;;25.85;32.69;99680.34;5033147;28;20186;-74
2023/06/13 10:23:32;;;;;;;14.30;7.55;;;;;;;26.06;33.50;99690.25;5033186;28;20064;-73
2023/06/13 10:26:06;;;;;;;10.23;6.45;;;;;;;25.76;33.37;99689.78;5033129;28;20583;-74
2023/06/13 10:28:43;;;;;;;13.45;8.60;;;;;;;25.91;32.19;99684.44;5032520;28;20033;-74
2023/06/13 10:31:26;;;;;;;18.95;7.60;;;;;;;26.07;32.34;99680.72;5032679;28;20040;-74
2023/06/13 10:34:30;;;;;;;14.40;7.03;;;;;;;26.15;32.18;99673.25;5032853;28;20433;-74
2023/06/13 10:37:26;;;;;;;11.00;7.43;;;;;;;26.14;29.52;99669.66;5018888;28;20048;-73
2023/06/13 10:40:10;;;;;;;13.55;7.05;;;;;;;26.21;30.15;99672.56;5032263;28;20164;-74
2023/06/13 10:42:38;;;;;;;13.32;7.25;;;;;;;26.20;31.41;99662.56;5033103;28;20032;-74
2023/06/13 10:45:13;;;;;;;12.52;7.68;;;;;;;26.25;31.66;99669.81;5032827;28;20087;-73
2023/06/13 10:47:38;;;;;;;17.33;7.60;;;;;;;26.31;32.85;99653.53;5032736;28;20053;-73
2023/06/13 10:50:04;;;;;;;13.63;8.32;;;;;;;26.39;31.46;99666.47;5031618;28;20512;-74
2023/06/13 10:52:30;;;;;;;10.98;7.00;;;;;;;26.39;29.98;99652.50;5031351;28;20065;-73
2023/06/13 10:54:58;;;;;;;16.00;7.53;;;;;;;26.53;30.39;99653.88;5032071;28;20025;-72
2023/06/13 10:57:50;;;;;;;13.25;8.02;;;;;;;26.57;30.51;99652.75;5032625;28;20103;-71
2023/06/13 11:00:24;;;;;;;15.55;7.45;;;;;;;26.60;30.58;99656.81;5032065;28;20053;-74
2023/06/13 11:03:00;;;;;;;16.15;7.35;;;;;;;26.68;30.90;99652.94;5032512;28;20628;-73
2023/06/13 11:05:26;;;;;;;11.15;7.18;;;;;;;26.66;31.38;99649.72;5032555;28;20061;-73
2023/06/13 11:07:55;;;;;;;11.38;7.25;;;;;;;26.76;31.46;99641.84;5032751;28;20497;-74
2023/06/13 11:10:22;;;;;;;18.33;7.43;;;;;;;26.89;31.21;99640.38;5032852;28;20855;-74
2023/06/13 11:12:47;;;;;;;18.35;8.13;;;;;;;26.87;31.70;99639.97;5032590;28;20037;-74
2023/06/13 11:15:21;;;;;;;10.83;7.57;;;;;;;26.91;30.78;99631.66;5032767;28;20071;-74
2023/06/13 11:18:08;;;;;;;10.45;6.10;;;;;;;26.86;29.94;99624.38;5032779;28;20275;-74
2023/06/13 11:20:52;;;;;;;13.95;8.60;;;;;;;26.65;28.71;99631.31;5032342;28;20047;-75
2023/06/13 11:23:18;;;;;;;12.90;7.55;;;;;;;26.89;29.09;99629.22;5032972;28;20033;-73
2023/06/13 11:25:45;;;;;;;10.40;7.70;;;;;;;26.95;29.75;99621.28;5032478;28;20573;-74
2023/06/13 11:28:13;;;;;;;16.35;7.82;;;;;;;27.02;31.03;99628.97;5031820;28;20507;-74
2023/06/13 11:30:41;;;;;;;13.57;7.43;;;;;;;27.05;31.56;99636.59;5032485;28;20037;-75
2023/06/13 11:33:07;;;;;;;12.38;8.27;;;;;;;27.08;31.95;99633.06;5032371;28;20029;-74
2023/06/13 11:35:35;;;;;;;20.05;8.38;;;;;;;27.34;32.14;99636.94;5032296;28;20116;-73
2023/06/13 11:38:07;;;;;;;11.50;8.18;;;;;;;27.45;31.43;99627.84;5032074;28;20029;-73
2023/06/13 11:40:40;;;;;;;11.68;8.45;;;;;;;27.66;30.92;99612.47;5036650;28;20332;-74
2023/06/13 11:43:06;;;;;;;13.10;7.47;;;;;;;27.72;30.66;99616.53;5034928;28;20498;-73
2023/06/13 11:45:31;;;;;;;11.45;8.38;;;;;;;27.80;30.51;99615.44;5036225;28;20044;-75
2023/06/13 11:47:58;;;;;;;31.73;7.35;;;;;;;27.88;31.49;99624.69;5035706;28;20029;-75
2023/06/13 11:50:27;;;;;;;12.02;6.97;;;;;;;27.91;31.50;99611.88;5035847;28;20044;-75
2023/06/13 11:53:03;;;;;;;15.50;8.40;;;;;;;27.81;30.70;99611.41;5035997;28;20033;-77
2023/06/13 11:55:28;;;;;;;17.00;7.10;;;;;;;27.83;30.81;99616.63;5036484;28;20473;-77
2023/06/13 11:57:55;;;;;;;10.02;7.05;;;;;;;27.79;30.87;99610.19;5036222;28;20048;-75
2023/06/13 12:00:25;;;;;;;8.98;6.97;;;;;;;27.89;30.82;99619.91;5036777;28;20098;-76
2023/06/13 12:02:51;;;;;;;14.23;7.07;;;;;;;28.02;29.78;99612.78;5035989;28;20613;-76
2023/06/13 12:05:17;;;;;;;13.68;6.63;;;;;;;28.06;30.58;99613.63;5035680;28;20076;-76
2023/06/13 12:07:43;;;;;;;12.95;6.88;;;;;;;28.04;30.57;99630.00;5035578;28;20037;-76
2023/06/13 12:10:10;;;;;;;14.52;6.10;;;;;;;28.09;30.11;99612.81;5035998;28;20061;-77
2023/06/13 12:12:35;;;;;;;16.15;5.90;;;;;;;28.14;29.05;99608.06;5036182;28;20036;-77
2023/06/13 12:15:02;;;;;;;9.33;5.87;;;;;;;28.24;29.30;99607.31;5035426;28;20029;-75
2023/06/13 12:17:27;;;;;;;14.00;6.43;;;;;;;28.26;30.50;99606.94;5036162;28;20044;-77
2023/06/13 12:20:07;;;;;;;10.57;6.60;;;;;;;28.21;28.56;99608.13;5035317;28;20029;-77
2023/06/13 12:22:32;;;;;;;10.00;6.60;;;;;;;28.33;29.12;99595.78;5037046;28;20634;-77
2023/06/13 12:24:58;;;;;;;14.23;7.03;;;;;;;28.52;28.57;99600.31;5036879;28;20033;-79
2023/06/13 12:27:25;;;;;;;10.65;5.72;;;;;;;28.60;27.96;99601.13;5039247;28;20267;-77